createdAt,value
2023-05-17T00:00:52.848Z,1.65
2023-05-17T00:05:25.784Z,1.33
2023-05-17T00:07:31.645Z,1.40
2023-05-17T00:09:38.669Z,1.30
2023-05-17T00:11:50.073Z,1.20
2023-05-17T00:13:55.732Z,1.45
2023-05-17T00:16:01.148Z,1.27
2023-05-17T00:18:07.865Z,1.50
2023-05-17T00:20:14.200Z,1.40
2023-05-17T00:22:24.323Z,1.30
2023-05-17T00:24:34.080Z,1.45
2023-05-17T00:26:52.728Z,1.38
2023-05-17T00:28:59.324Z,1.40
2023-05-17T00:31:07.937Z,1.50
2023-05-17T00:33:22.861Z,1.60
2023-05-17T00:35:30.146Z,1.50
2023-05-17T00:37:38.373Z,1.70
2023-05-17T00:41:56.732Z,1.50
2023-05-17T00:44:02.454Z,1.88
2023-05-17T00:46:07.876Z,1.83
2023-05-17T00:48:15.736Z,1.63
2023-05-17T00:50:23.692Z,1.70
2023-05-17T00:52:30.479Z,1.67
2023-05-17T00:54:39.762Z,1.70
2023-05-17T00:56:51.509Z,1.75
2023-05-17T00:58:57.403Z,1.90
2023-05-17T01:01:03.627Z,1.88
2023-05-17T01:03:19.529Z,1.50
2023-05-17T01:05:29.337Z,1.50
2023-05-17T01:07:44.531Z,1.55
2023-05-17T01:09:56.586Z,1.67
2023-05-17T01:12:11.717Z,1.50
2023-05-17T01:14:46.072Z,1.60
2023-05-17T01:17:01.580Z,1.40
2023-05-17T01:19:16.664Z,1.65
2023-05-17T01:21:45.362Z,1.40
2023-05-17T01:24:07.205Z,1.40
2023-05-17T01:26:23.892Z,1.40
2023-05-17T01:28:34.599Z,1.33
2023-05-17T01:30:41.944Z,1.83
2023-05-17T01:32:59.667Z,1.30
2023-05-17T01:35:08.007Z,1.73
2023-05-17T01:37:14.072Z,1.80
2023-05-17T01:39:19.623Z,2.17
2023-05-17T01:41:32.469Z,1.60
2023-05-17T01:43:49.410Z,1.30
2023-05-17T01:46:03.826Z,1.77
2023-05-17T01:48:18.890Z,1.95
2023-05-17T01:50:32.109Z,1.92
2023-05-17T01:52:54.665Z,1.55
2023-05-17T01:55:10.761Z,1.52
2023-05-17T01:57:19.657Z,1.60
2023-05-17T01:59:29.803Z,1.33
2023-05-17T02:01:36.985Z,1.60
2023-05-17T02:03:42.543Z,1.60
2023-05-17T02:05:48.295Z,1.70
2023-05-17T02:07:56.878Z,1.60
2023-05-17T02:10:04.459Z,1.67
2023-05-17T02:12:17.066Z,1.55
2023-05-17T02:14:23.323Z,1.98
2023-05-17T02:16:34.728Z,2.30
2023-05-17T02:18:40.672Z,1.15
2023-05-17T02:20:53.686Z,1.52
2023-05-17T02:23:09.346Z,1.90
2023-05-17T02:25:14.788Z,1.65
2023-05-17T02:27:20.315Z,1.83
2023-05-17T02:29:25.689Z,1.95
2023-05-17T02:31:39.013Z,2.03
2023-05-17T02:33:47.133Z,1.40
2023-05-17T02:35:54.622Z,2.22
2023-05-17T02:38:00.064Z,1.88
2023-05-17T02:40:09.499Z,1.73
2023-05-17T02:42:14.978Z,2.13
2023-05-17T02:44:20.385Z,1.77
2023-05-17T02:46:47.917Z,1.88
2023-05-17T02:48:54.386Z,2.00
2023-05-17T02:51:00.241Z,1.95
2023-05-17T02:53:15.073Z,3.40
2023-05-17T02:55:20.896Z,2.08
2023-05-17T02:57:26.485Z,1.75
2023-05-17T02:59:32.618Z,1.85
2023-05-17T03:01:46.388Z,2.00
2023-05-17T03:03:52.640Z,1.80
2023-05-17T03:06:02.832Z,1.88
2023-05-17T03:08:08.797Z,2.08
2023-05-17T03:10:14.925Z,1.73
2023-05-17T03:12:29.456Z,1.52
2023-05-17T03:14:35.793Z,2.17
2023-05-17T03:16:44.157Z,1.85
2023-05-17T03:18:50.370Z,2.00
2023-05-17T03:20:56.003Z,1.73
2023-05-17T03:23:08.995Z,2.20
2023-05-17T03:25:41.045Z,2.28
2023-05-17T03:27:48.358Z,2.08
2023-05-17T03:29:54.506Z,2.35
2023-05-17T03:32:14.919Z,1.65
2023-05-17T03:34:22.785Z,1.80
2023-05-17T03:36:28.645Z,2.25
2023-05-17T03:38:34.225Z,2.00
2023-05-17T03:40:40.063Z,2.05
2023-05-17T03:42:52.288Z,1.95
2023-05-17T03:44:58.342Z,2.20
2023-05-17T03:47:09.748Z,1.75
2023-05-17T03:49:15.848Z,2.20
2023-05-17T03:51:21.874Z,2.70
2023-05-17T03:53:27.974Z,2.50
2023-05-17T03:55:34.716Z,2.42
2023-05-17T03:57:46.659Z,2.30
2023-05-17T03:59:52.165Z,2.35
2023-05-17T04:02:25.855Z,2.40
2023-05-17T04:04:32.777Z,2.30
2023-05-17T04:06:38.326Z,3.10
2023-05-17T04:08:44.396Z,1.95
2023-05-17T04:10:51.233Z,2.15
2023-05-17T04:12:56.758Z,2.60
2023-05-17T04:15:02.211Z,2.10
2023-05-17T04:17:10.425Z,2.53
2023-05-17T04:19:18.762Z,3.00
2023-05-17T04:21:30.153Z,2.25
2023-05-17T04:23:38.104Z,2.60
2023-05-17T04:25:44.749Z,2.60
2023-05-17T04:27:50.194Z,2.85
2023-05-17T04:29:55.991Z,2.47
2023-05-17T04:32:14.366Z,2.88
2023-05-17T04:34:23.730Z,2.88
2023-05-17T04:36:30.725Z,2.45
2023-05-17T04:38:36.241Z,2.90
2023-05-17T04:40:42.539Z,2.80
2023-05-17T04:43:02.376Z,2.58
2023-05-17T04:45:13.468Z,3.15
2023-05-17T04:47:23.032Z,2.28
2023-05-17T04:49:31.667Z,2.97
2023-05-17T04:51:49.686Z,3.00
2023-05-17T04:53:58.597Z,2.40
2023-05-17T04:56:04.957Z,2.78
2023-05-17T04:58:10.804Z,2.67
2023-05-17T05:00:22.043Z,2.60
2023-05-17T05:02:35.429Z,2.35
2023-05-17T05:04:44.676Z,2.70
2023-05-17T05:06:51.928Z,3.05
2023-05-17T05:08:58.965Z,2.80
2023-05-17T05:11:05.443Z,2.75
2023-05-17T05:13:12.138Z,2.63
2023-05-17T05:15:30.285Z,3.00
2023-05-17T05:17:42.175Z,2.83
2023-05-17T05:19:51.043Z,2.70
2023-05-17T05:22:12.619Z,2.88
2023-05-17T05:24:19.350Z,2.70
2023-05-17T05:26:28.110Z,3.40
2023-05-17T05:28:36.342Z,3.00
2023-05-17T05:30:43.718Z,3.05
2023-05-17T05:32:59.852Z,2.90
2023-05-17T05:35:10.405Z,3.35
2023-05-17T05:37:20.820Z,7.35
2023-05-17T05:39:28.595Z,6.75
2023-05-17T05:41:34.145Z,5.97
2023-05-17T05:43:44.768Z,5.57
2023-05-17T05:45:52.415Z,3.85
2023-05-17T05:50:12.016Z,4.50
2023-05-17T05:52:18.166Z,4.10
2023-05-17T05:54:31.633Z,4.30
2023-05-17T05:56:37.591Z,3.42
2023-05-17T05:58:45.252Z,4.00
2023-05-17T06:00:51.420Z,3.60
2023-05-17T06:03:01.263Z,3.15
2023-05-17T06:05:10.189Z,3.42
2023-05-17T06:07:16.741Z,2.90
2023-05-17T06:09:22.153Z,3.65
2023-05-17T06:11:28.894Z,5.20
2023-05-17T06:13:35.215Z,4.47
2023-05-17T06:15:40.844Z,5.03
2023-05-17T06:17:51.719Z,5.00
2023-05-17T06:19:59.848Z,4.35
2023-05-17T06:22:13.806Z,4.95
2023-05-17T06:24:20.432Z,4.65
2023-05-17T06:26:26.396Z,3.85
2023-05-17T06:28:35.256Z,4.32
2023-05-17T06:30:42.489Z,3.38
2023-05-17T06:32:56.621Z,4.10
2023-05-17T06:35:06.451Z,3.78
2023-05-17T06:37:14.424Z,3.75
2023-05-17T06:39:21.313Z,4.22
2023-05-17T06:41:26.813Z,4.18
2023-05-17T06:43:32.205Z,3.80
2023-05-17T06:45:40.274Z,4.10
2023-05-17T06:47:45.767Z,3.38
2023-05-17T06:49:54.467Z,3.67
2023-05-17T06:52:18.503Z,3.38
2023-05-17T06:54:24.468Z,3.88
2023-05-17T06:56:31.248Z,3.85
2023-05-17T06:58:36.805Z,3.63
2023-05-17T07:00:45.098Z,4.00
2023-05-17T07:03:17.048Z,3.45
2023-05-17T07:05:24.202Z,3.60
2023-05-17T07:07:32.243Z,3.50
2023-05-17T07:09:38.340Z,3.65
2023-05-17T07:11:57.853Z,4.75
2023-05-17T07:14:03.806Z,3.58
2023-05-17T07:16:15.387Z,3.88
2023-05-17T07:18:22.298Z,3.70
2023-05-17T07:20:32.235Z,3.42
2023-05-17T07:22:40.652Z,4.13
2023-05-17T07:24:47.366Z,3.63
2023-05-17T07:26:59.390Z,3.83
2023-05-17T07:29:05.181Z,3.53
2023-05-17T07:31:11.663Z,3.20
2023-05-17T07:33:17.906Z,3.38
2023-05-17T07:35:35.016Z,3.65
2023-05-17T07:37:45.445Z,3.67
2023-05-17T07:39:52.367Z,4.22
2023-05-17T07:42:05.638Z,3.30
2023-05-17T07:44:15.751Z,3.58
2023-05-17T07:46:22.576Z,4.13
2023-05-17T07:48:29.254Z,3.77
2023-05-17T07:50:36.388Z,3.20
2023-05-17T07:52:48.494Z,3.17
2023-05-17T07:54:53.945Z,3.67
2023-05-17T07:57:01.490Z,3.30
2023-05-17T07:59:10.494Z,2.88
2023-05-17T08:01:15.972Z,3.10
2023-05-17T08:03:24.016Z,2.90
2023-05-17T08:05:34.106Z,3.15
2023-05-17T08:07:39.590Z,3.28
2023-05-17T08:09:55.643Z,2.83
2023-05-17T08:12:07.503Z,2.72
2023-05-17T08:14:12.903Z,2.50
2023-05-17T08:16:18.598Z,2.50
2023-05-17T08:18:25.081Z,3.22
2023-05-17T08:20:30.617Z,3.38
2023-05-17T08:22:42.728Z,2.80
2023-05-17T08:24:51.540Z,2.92
2023-05-17T08:27:00.393Z,3.03
2023-05-17T08:29:09.343Z,2.88
2023-05-17T08:31:15.432Z,2.25
2023-05-17T08:33:23.149Z,2.97
2023-05-17T08:35:29.298Z,1.92
2023-05-17T08:37:36.071Z,2.53
2023-05-17T08:40:09.455Z,2.33
2023-05-17T08:42:17.736Z,2.33
2023-05-17T08:44:24.860Z,2.40
2023-05-17T08:46:32.169Z,2.63
2023-05-17T08:50:52.837Z,2.13
2023-05-17T08:53:04.014Z,2.00
2023-05-17T08:55:19.390Z,2.47
2023-05-17T08:57:31.205Z,2.20
2023-05-17T08:59:38.773Z,2.50
2023-05-17T09:01:51.168Z,2.72
2023-05-17T09:03:58.664Z,3.05
2023-05-17T09:06:10.204Z,2.28
2023-05-17T09:08:15.722Z,2.75
2023-05-17T09:10:25.375Z,3.05
2023-05-17T09:12:34.883Z,2.60
2023-05-17T09:14:44.853Z,2.90
2023-05-17T09:17:03.073Z,1.95
2023-05-17T09:19:19.416Z,2.95
2023-05-17T09:21:28.638Z,2.85
2023-05-17T09:23:36.031Z,3.13
2023-05-17T09:28:10.732Z,2.28
2023-05-17T09:30:17.379Z,2.60
2023-05-17T09:32:25.317Z,3.45
2023-05-17T09:36:42.175Z,2.45
2023-05-17T09:38:58.947Z,2.42
2023-05-17T09:43:19.603Z,2.60
2023-05-17T09:45:26.840Z,2.53
2023-05-17T09:47:34.541Z,2.50
2023-05-17T09:49:41.348Z,2.67
2023-05-17T09:51:54.034Z,2.53
2023-05-17T09:54:02.201Z,2.65
2023-05-17T09:56:14.665Z,2.15
2023-05-17T09:58:20.488Z,2.13
2023-05-17T10:00:26.433Z,2.05
2023-05-17T10:02:36.960Z,2.72
2023-05-17T10:04:43.217Z,2.20
2023-05-17T10:06:52.452Z,2.45
2023-05-17T10:09:01.137Z,2.05
2023-05-17T10:11:13.271Z,2.53
2023-05-17T10:13:34.207Z,2.22
2023-05-17T10:15:40.533Z,1.58
2023-05-17T10:17:47.055Z,2.40
2023-05-17T10:19:53.443Z,3.20
2023-05-17T10:22:21.717Z,2.55
2023-05-17T10:24:31.776Z,1.85
2023-05-17T10:26:43.154Z,2.17
2023-05-17T10:28:52.268Z,2.17
2023-05-17T10:31:00.493Z,2.25
2023-05-17T10:33:12.310Z,1.88
2023-05-17T10:35:20.324Z,2.53
2023-05-17T10:37:28.335Z,1.70
2023-05-17T10:39:39.047Z,1.95
2023-05-17T10:41:49.636Z,2.20
2023-05-17T10:43:58.958Z,2.00
2023-05-17T10:46:08.561Z,2.05
2023-05-17T10:48:14.432Z,2.00
2023-05-17T10:50:25.689Z,2.05
2023-05-17T10:52:31.740Z,2.30
2023-05-17T10:54:39.414Z,1.95
2023-05-17T10:56:56.099Z,2.10
2023-05-17T10:59:17.740Z,2.05
2023-05-17T11:02:07.416Z,2.17
2023-05-17T11:04:27.007Z,2.22
2023-05-17T11:06:39.467Z,2.38
2023-05-17T11:08:50.003Z,2.50
2023-05-17T11:11:14.505Z,2.10
2023-05-17T11:13:30.112Z,2.03
2023-05-17T11:15:37.059Z,1.90
2023-05-17T11:18:29.094Z,2.28
2023-05-17T11:20:38.036Z,2.13
2023-05-17T11:22:51.766Z,2.17
2023-05-17T11:25:01.775Z,2.38
2023-05-17T11:27:09.757Z,2.10
2023-05-17T11:29:22.094Z,1.80
2023-05-17T11:31:34.814Z,2.17
2023-05-17T11:33:46.597Z,1.90
2023-05-17T11:35:56.870Z,2.30
2023-05-17T11:38:19.590Z,2.20
2023-05-17T11:40:33.970Z,1.65
2023-05-17T11:42:41.744Z,2.13
2023-05-17T11:44:50.681Z,2.40
2023-05-17T11:47:03.414Z,1.70
2023-05-17T11:49:12.099Z,1.70
2023-05-17T11:51:21.355Z,1.80
2023-05-17T11:53:30.145Z,1.80
2023-05-17T11:55:35.714Z,2.40
2023-05-17T11:57:42.946Z,1.52
2023-05-17T11:59:53.846Z,2.33
2023-05-17T12:02:00.586Z,1.95
2023-05-17T12:04:09.839Z,2.00
2023-05-17T12:06:17.602Z,1.85
2023-05-17T12:08:24.381Z,1.95
2023-05-17T12:10:34.249Z,2.17
2023-05-17T12:12:41.586Z,2.38
2023-05-17T12:14:48.431Z,2.43
2023-05-17T12:16:59.266Z,1.90
2023-05-17T12:19:04.872Z,1.67
2023-05-17T12:21:19.536Z,1.92
2023-05-17T12:23:31.794Z,2.20
2023-05-17T12:25:37.437Z,2.03
2023-05-17T12:27:50.574Z,2.10
2023-05-17T12:29:56.799Z,2.75
2023-05-17T12:32:07.416Z,1.73
2023-05-17T12:34:17.303Z,2.55
2023-05-17T12:36:25.303Z,1.67
2023-05-17T12:38:34.611Z,2.08
2023-05-17T12:40:43.616Z,1.80
2023-05-17T12:42:56.146Z,1.98
2023-05-17T12:45:04.770Z,2.25
2023-05-17T12:47:13.542Z,2.10
2023-05-17T12:49:21.130Z,1.83
2023-05-17T12:51:27.312Z,2.38
2023-05-17T12:53:56.908Z,1.90
2023-05-17T12:56:02.583Z,1.90
2023-05-17T12:58:09.529Z,2.00
2023-05-17T13:00:17.392Z,1.80
2023-05-17T13:02:27.414Z,1.80
2023-05-17T13:04:36.847Z,2.33
2023-05-17T13:06:50.442Z,2.42
2023-05-17T13:09:02.660Z,1.83
2023-05-17T13:11:15.215Z,2.28
2023-05-17T13:13:23.988Z,2.17
2023-05-17T13:15:33.614Z,2.13
2023-05-17T13:17:45.163Z,2.30
2023-05-17T13:19:51.419Z,2.10
2023-05-17T13:22:10.956Z,1.85
2023-05-17T13:24:17.046Z,1.73
2023-05-17T13:26:24.410Z,1.73
2023-05-17T13:28:30.209Z,3.38
2023-05-17T13:30:38.122Z,2.40
2023-05-17T13:32:57.367Z,2.40
2023-05-17T13:35:02.823Z,1.80
2023-05-17T13:37:12.708Z,2.08
2023-05-17T13:39:21.245Z,2.08
2023-05-17T13:41:26.958Z,1.83
2023-05-17T13:43:32.476Z,1.92
2023-05-17T13:45:39.374Z,2.20
2023-05-17T13:47:57.211Z,2.15
2023-05-17T13:50:03.950Z,2.28
2023-05-17T13:52:13.604Z,1.98
2023-05-17T13:54:20.812Z,2.30
2023-05-17T13:56:27.913Z,1.83
2023-05-17T13:58:33.546Z,2.05
2023-05-17T14:00:41.355Z,2.00
2023-05-17T14:02:56.793Z,1.80
2023-05-17T14:05:05.205Z,1.95
2023-05-17T14:07:11.078Z,2.10
2023-05-17T14:09:16.515Z,1.83
2023-05-17T14:11:21.967Z,2.00
2023-05-17T14:13:28.937Z,2.10
2023-05-17T14:15:46.130Z,2.42
2023-05-17T14:17:57.028Z,2.25
2023-05-17T14:20:02.791Z,2.30
2023-05-17T14:22:09.735Z,1.88
2023-05-17T14:24:18.653Z,1.88
2023-05-17T14:26:24.413Z,2.00
2023-05-17T14:28:30.585Z,2.05
2023-05-17T14:30:36.668Z,2.10
2023-05-17T14:32:42.141Z,2.00
2023-05-17T14:34:50.263Z,1.73
2023-05-17T14:36:56.032Z,2.40
2023-05-17T14:39:01.962Z,1.90
2023-05-17T14:41:07.653Z,1.90
2023-05-17T14:43:13.160Z,2.13
2023-05-17T14:45:19.262Z,2.60
2023-05-17T14:47:25.875Z,2.13
2023-05-17T14:49:31.747Z,2.00
2023-05-17T14:51:39.912Z,2.15
2023-05-17T14:53:45.353Z,2.42
2023-05-17T14:55:50.828Z,2.30
2023-05-17T14:57:57.936Z,2.20
2023-05-17T15:00:09.904Z,2.10
2023-05-17T15:02:15.401Z,1.80
2023-05-17T15:04:21.759Z,2.20
2023-05-17T15:06:27.251Z,1.70
2023-05-17T15:08:36.024Z,2.08
2023-05-17T15:10:41.642Z,1.95
2023-05-17T15:12:47.510Z,1.75
2023-05-17T15:14:53.128Z,1.67
2023-05-17T15:16:58.730Z,1.88
2023-05-17T15:19:04.444Z,1.83
2023-05-17T15:21:10.076Z,1.70
2023-05-17T15:23:16.051Z,1.73
2023-05-17T15:25:24.824Z,2.08
2023-05-17T15:27:30.266Z,1.50
2023-05-17T15:29:38.981Z,1.80
2023-05-17T15:31:44.527Z,1.63
2023-05-17T15:33:50.129Z,1.83
2023-05-17T15:35:56.006Z,1.63
2023-05-17T15:38:03.087Z,1.70
2023-05-17T15:40:12.840Z,1.80
2023-05-17T15:42:21.332Z,1.70
2023-05-17T15:44:27.187Z,1.60
2023-05-17T15:46:32.742Z,2.10
2023-05-17T15:48:38.470Z,1.65
2023-05-17T15:50:44.083Z,2.00
2023-05-17T15:52:49.970Z,1.35
2023-05-17T15:54:55.485Z,1.83
2023-05-17T15:57:01.407Z,1.52
2023-05-17T15:59:09.467Z,1.75
2023-05-17T16:01:14.988Z,2.00
2023-05-17T16:03:20.578Z,1.80
2023-05-17T16:05:26.721Z,1.70
2023-05-17T16:07:32.637Z,1.60
2023-05-17T16:09:38.361Z,1.60
2023-05-17T16:11:44.310Z,1.80
2023-05-17T16:13:49.775Z,1.67
2023-05-17T16:15:58.281Z,1.80
2023-05-17T16:18:03.889Z,2.25
2023-05-17T16:20:11.028Z,2.17
2023-05-17T16:22:16.636Z,1.77
2023-05-17T16:24:22.403Z,1.75
2023-05-17T16:26:28.341Z,1.70
2023-05-17T16:28:37.125Z,1.63
2023-05-17T16:30:42.666Z,1.58
2023-05-17T16:32:51.108Z,1.90
2023-05-17T16:34:56.614Z,1.67
2023-05-17T16:37:02.046Z,1.70
2023-05-17T16:39:07.923Z,1.67
2023-05-17T16:41:13.740Z,1.90
2023-05-17T16:43:19.381Z,1.80
2023-05-17T16:45:24.914Z,1.83
2023-05-17T16:47:30.731Z,1.88
2023-05-17T16:49:41.163Z,1.63
2023-05-17T16:51:46.927Z,1.70
2023-05-17T16:53:52.429Z,1.55
2023-05-17T16:55:57.896Z,1.50
2023-05-17T16:58:03.459Z,1.55
2023-05-17T17:00:12.189Z,1.63
2023-05-17T17:02:17.900Z,1.55
2023-05-17T17:04:23.730Z,1.73
2023-05-17T17:06:33.990Z,1.60
2023-05-17T17:08:39.502Z,1.67
2023-05-17T17:10:45.103Z,2.03
2023-05-17T17:12:51.002Z,1.65
2023-05-17T17:14:57.018Z,1.83
2023-05-17T17:17:03.060Z,1.90
2023-05-17T17:19:09.445Z,1.95
2023-05-17T17:21:14.993Z,1.77
2023-05-17T17:23:23.438Z,1.38
2023-05-17T17:25:29.852Z,1.75
2023-05-17T17:27:35.561Z,2.13
2023-05-17T17:29:41.263Z,1.35
2023-05-17T17:31:46.783Z,1.73
2023-05-17T17:33:52.277Z,1.55
2023-05-17T17:35:57.756Z,1.70
2023-05-17T17:38:03.248Z,1.60
2023-05-17T17:40:13.043Z,1.98
2023-05-17T17:42:18.598Z,1.88
2023-05-17T17:44:24.103Z,1.80
2023-05-17T17:46:29.992Z,1.70
2023-05-17T17:48:35.799Z,1.75
2023-05-17T17:50:41.485Z,1.50
2023-05-17T17:52:47.063Z,1.98
2023-05-17T17:54:52.812Z,2.15
2023-05-17T17:57:02.528Z,1.63
2023-05-17T17:59:08.094Z,1.73
2023-05-17T18:01:13.648Z,1.77
2023-05-17T18:03:19.117Z,2.10
2023-05-17T18:05:26.466Z,2.08
2023-05-17T18:07:31.921Z,2.20
2023-05-17T18:09:37.398Z,2.20
2023-05-17T18:11:42.881Z,1.67
2023-05-17T18:13:51.290Z,2.20
2023-05-17T18:15:56.939Z,1.60
2023-05-17T18:18:02.459Z,1.50
2023-05-17T18:20:09.510Z,2.03
2023-05-17T18:22:16.602Z,1.60
2023-05-17T18:24:22.319Z,1.65
2023-05-17T18:26:28.045Z,1.75
2023-05-17T18:28:42.006Z,1.40
2023-05-17T18:30:50.806Z,2.15
2023-05-17T18:32:56.346Z,2.03
2023-05-17T18:35:01.977Z,1.73
2023-05-17T18:37:08.402Z,1.70
2023-05-17T18:39:13.917Z,2.38
2023-05-17T18:41:19.773Z,1.80
2023-05-17T18:43:25.269Z,2.00
2023-05-17T18:45:31.972Z,1.95
2023-05-17T18:47:40.277Z,1.80
2023-05-17T18:49:47.160Z,1.70
2023-05-17T18:51:52.760Z,1.70
2023-05-17T18:53:58.161Z,1.88
2023-05-17T18:56:05.909Z,1.92
2023-05-17T19:00:18.239Z,1.85
2023-05-17T19:02:23.737Z,2.10
2023-05-17T19:04:32.323Z,1.85
2023-05-17T19:06:41.490Z,1.60
2023-05-17T19:08:47.091Z,2.00
2023-05-17T19:10:52.649Z,2.22
2023-05-17T19:12:58.550Z,2.00
2023-05-17T19:15:04.098Z,2.20
2023-05-17T19:17:10.407Z,2.78
2023-05-17T19:19:16.182Z,2.40
2023-05-17T19:21:25.028Z,2.88
2023-05-17T19:23:32.397Z,2.50
2023-05-17T19:25:37.897Z,2.50
2023-05-17T19:27:44.549Z,2.50
2023-05-17T19:29:50.402Z,2.65
2023-05-17T19:31:58.104Z,2.33
2023-05-17T19:36:08.841Z,2.00
2023-05-17T19:38:17.425Z,2.40
2023-05-17T19:40:23.257Z,2.08
2023-05-17T19:42:28.848Z,2.22
2023-05-17T19:44:37.577Z,1.90
2023-05-17T19:46:43.141Z,2.45
2023-05-17T19:48:49.566Z,2.00
2023-05-17T19:50:56.721Z,2.35
2023-05-17T19:53:02.444Z,2.50
2023-05-17T19:55:11.113Z,2.08
2023-05-17T19:57:16.815Z,2.33
2023-05-17T19:59:22.522Z,2.20
2023-05-17T20:01:28.244Z,2.15
2023-05-17T20:03:33.887Z,2.65
2023-05-17T20:05:39.419Z,2.60
2023-05-17T20:07:44.849Z,1.77
2023-05-17T20:09:50.523Z,2.10
2023-05-17T20:11:58.769Z,2.97
2023-05-17T20:14:04.472Z,3.10
2023-05-17T20:16:13.217Z,2.42
2023-05-17T20:18:19.007Z,2.40
2023-05-17T20:20:25.443Z,2.17
2023-05-17T20:22:31.889Z,2.60
2023-05-17T20:24:37.757Z,2.42
2023-05-17T20:26:46.395Z,2.33
2023-05-17T20:28:54.844Z,2.55
2023-05-17T20:31:01.224Z,2.40
2023-05-17T20:33:09.236Z,2.53
2023-05-17T20:35:16.101Z,3.15
2023-05-17T20:37:21.555Z,2.50
2023-05-17T20:39:28.189Z,2.97
2023-05-17T20:41:33.669Z,2.70
2023-05-17T20:43:39.902Z,2.78
2023-05-17T20:45:49.963Z,2.20
2023-05-17T20:47:55.679Z,3.13
2023-05-17T20:50:01.125Z,2.60
2023-05-17T20:52:07.257Z,3.05
2023-05-17T20:54:12.804Z,2.72
2023-05-17T20:56:19.431Z,3.05
2023-05-17T20:58:24.893Z,3.17
2023-05-17T21:00:30.669Z,3.30
2023-05-17T21:02:38.894Z,2.97
2023-05-17T21:04:44.414Z,2.70
2023-05-17T21:06:49.961Z,2.70
2023-05-17T21:08:55.616Z,2.80
2023-05-17T21:11:01.184Z,2.88
2023-05-17T21:13:06.834Z,3.03
2023-05-17T21:15:16.995Z,3.10
2023-05-17T21:17:22.957Z,2.90
2023-05-17T21:19:31.165Z,3.10
2023-05-17T21:21:37.027Z,2.80
2023-05-17T21:23:42.819Z,3.03
2023-05-17T21:25:49.261Z,2.65
2023-05-17T21:27:54.715Z,2.95
2023-05-17T21:30:00.244Z,2.78
2023-05-17T21:32:06.410Z,3.63
2023-05-17T21:34:11.933Z,3.20
2023-05-17T21:36:20.092Z,3.55
2023-05-17T21:38:25.549Z,2.75
2023-05-17T21:40:31.290Z,3.50
2023-05-17T21:42:37.330Z,3.25
2023-05-17T21:44:42.801Z,2.95
2023-05-17T21:46:48.343Z,3.72
2023-05-17T21:48:53.869Z,3.33
2023-05-17T21:50:59.569Z,3.03
2023-05-17T21:53:08.063Z,2.97
2023-05-17T21:55:13.853Z,3.00
2023-05-17T21:57:21.231Z,2.75
2023-05-17T21:59:26.745Z,3.15
2023-05-17T22:01:33.617Z,2.78
2023-05-17T22:03:39.208Z,2.92
2023-05-17T22:05:44.839Z,3.30
2023-05-17T22:07:50.280Z,3.15
2023-05-17T22:09:58.556Z,3.08
2023-05-17T22:12:05.069Z,3.45
2023-05-17T22:14:11.748Z,3.38
2023-05-17T22:16:18.909Z,3.17
2023-05-17T22:18:24.515Z,2.92
2023-05-17T22:20:30.214Z,3.00
2023-05-17T22:22:35.929Z,2.97
2023-05-17T22:24:41.607Z,3.10
2023-05-17T22:26:49.673Z,3.00
2023-05-17T22:28:56.089Z,3.33
2023-05-17T22:31:02.399Z,3.65
2023-05-17T22:33:08.105Z,3.17
2023-05-17T22:35:13.620Z,2.85
2023-05-17T22:37:22.799Z,2.80
2023-05-17T22:39:28.333Z,3.95
2023-05-17T22:41:33.838Z,2.88
2023-05-17T22:43:42.169Z,2.75
2023-05-17T22:45:47.729Z,4.05
2023-05-17T22:47:54.473Z,2.97
2023-05-17T22:50:00.936Z,3.53
2023-05-17T22:52:07.989Z,3.03
2023-05-17T22:54:13.577Z,3.23
2023-05-17T22:56:19.037Z,4.20
2023-05-17T22:58:25.286Z,3.53
2023-05-17T23:00:33.392Z,3.50
2023-05-17T23:02:38.952Z,3.33
2023-05-17T23:04:46.257Z,3.65
2023-05-17T23:06:52.275Z,3.42
2023-05-17T23:08:57.741Z,3.28
2023-05-17T23:11:05.279Z,3.90
2023-05-17T23:13:10.866Z,3.30
2023-05-17T23:15:16.786Z,3.30
2023-05-17T23:17:25.012Z,3.30
2023-05-17T23:19:30.788Z,3.35
2023-05-17T23:21:36.358Z,3.72
2023-05-17T23:23:41.915Z,3.90
2023-05-17T23:25:48.950Z,3.50
2023-05-17T23:27:54.420Z,3.10
2023-05-17T23:30:01.396Z,3.45
2023-05-17T23:32:07.236Z,3.42
2023-05-17T23:34:15.307Z,3.97
2023-05-17T23:36:21.964Z,3.50
2023-05-17T23:38:27.476Z,3.55
2023-05-17T23:40:34.499Z,3.58
2023-05-17T23:42:40.014Z,4.23
2023-05-17T23:44:46.623Z,3.53
2023-05-17T23:46:53.976Z,3.75
2023-05-17T23:48:59.406Z,4.07
2023-05-17T23:51:07.712Z,3.70
2023-05-17T23:53:13.490Z,4.03
2023-05-17T23:55:20.796Z,4.07
2023-05-17T23:57:27.703Z,3.67
2023-05-17T23:59:33.731Z,3.80
